sensor_id;sensor_type;location;lat;lon;timestamp;P1;durP1;ratioP1;P2;durP2;ratioP2
3841;SDS011;1936;47.074;15.336;2024-03-07T00:00:28;11.13;;;8.05;;
3841;SDS011;1936;47.074;15.336;2024-03-07T00:02:31;12.25;;;9.10;;
3841;SDS011;1936;47.074;15.336;2024-03-07T00:04:35;10.75;;;8.13;;
3841;SDS011;1936;47.074;15.336;2024-03-07T00:06:38;12.45;;;8.35;;
3841;SDS011;1936;47.074;15.336;2024-03-07T00:08:44;14.25;;;10.52;;
3841;SDS011;1936;47.074;15.336;2024-03-07T00:10:48;14.20;;;8.57;;
3841;SDS011;1936;47.074;15.336;2024-03-07T00:12:50;12.75;;;9.32;;
3841;SDS011;1936;47.074;15.336;2024-03-07T00:14:53;11.18;;;8.93;;
3841;SDS011;1936;47.074;15.336;2024-03-07T00:16:56;14.13;;;10.05;;
3841;SDS011;1936;47.074;15.336;2024-03-07T00:19:00;17.40;;;11.15;;
3841;SDS011;1936;47.074;15.336;2024-03-07T00:21:04;14.23;;;9.00;;
3841;SDS011;1936;47.074;15.336;2024-03-07T00:23:07;12.82;;;9.50;;
3841;SDS011;1936;47.074;15.336;2024-03-07T00:25:12;13.23;;;9.55;;
3841;SDS011;1936;47.074;15.336;2024-03-07T00:27:22;12.77;;;9.57;;
3841;SDS011;1936;47.074;15.336;2024-03-07T00:29:25;13.75;;;9.75;;
3841;SDS011;1936;47.074;15.336;2024-03-07T00:31:30;16.23;;;9.43;;
3841;SDS011;1936;47.074;15.336;2024-03-07T00:33:33;12.57;;;9.50;;
3841;SDS011;1936;47.074;15.336;2024-03-07T00:35:56;14.82;;;9.40;;
3841;SDS011;1936;47.074;15.336;2024-03-07T00:38:00;16.02;;;10.10;;
3841;SDS011;1936;47.074;15.336;2024-03-07T00:40:03;16.27;;;10.30;;
3841;SDS011;1936;47.074;15.336;2024-03-07T00:42:09;13.52;;;9.40;;
3841;SDS011;1936;47.074;15.336;2024-03-07T00:44:12;12.77;;;9.80;;
3841;SDS011;1936;47.074;15.336;2024-03-07T00:46:16;17.10;;;12.25;;
3841;SDS011;1936;47.074;15.336;2024-03-07T00:48:19;15.93;;;10.50;;
3841;SDS011;1936;47.074;15.336;2024-03-07T00:50:23;12.60;;;9.43;;
3841;SDS011;1936;47.074;15.336;2024-03-07T00:52:26;15.18;;;10.18;;
3841;SDS011;1936;47.074;15.336;2024-03-07T00:54:30;12.95;;;9.40;;
3841;SDS011;1936;47.074;15.336;2024-03-07T00:56:32;16.48;;;11.13;;
3841;SDS011;1936;47.074;15.336;2024-03-07T00:58:39;15.95;;;9.18;;
3841;SDS011;1936;47.074;15.336;2024-03-07T01:00:42;14.63;;;9.35;;
3841;SDS011;1936;47.074;15.336;2024-03-07T01:02:46;14.80;;;10.35;;
3841;SDS011;1936;47.074;15.336;2024-03-07T01:04:49;17.33;;;9.75;;
3841;SDS011;1936;47.074;15.336;2024-03-07T01:06:52;12.02;;;9.40;;
3841;SDS011;1936;47.074;15.336;2024-03-07T01:08:55;14.65;;;9.98;;
3841;SDS011;1936;47.074;15.336;2024-03-07T01:10:58;15.20;;;10.43;;
3841;SDS011;1936;47.074;15.336;2024-03-07T01:13:02;15.90;;;9.80;;
3841;SDS011;1936;47.074;15.336;2024-03-07T01:15:08;19.88;;;10.85;;
3841;SDS011;1936;47.074;15.336;2024-03-07T01:17:13;17.00;;;9.85;;
3841;SDS011;1936;47.074;15.336;2024-03-07T01:19:16;17.63;;;10.82;;
3841;SDS011;1936;47.074;15.336;2024-03-07T01:21:19;15.15;;;10.43;;
3841;SDS011;1936;47.074;15.336;2024-03-07T01:23:23;16.10;;;10.88;;
3841;SDS011;1936;47.074;15.336;2024-03-07T01:25:25;14.15;;;9.35;;
3841;SDS011;1936;47.074;15.336;2024-03-07T01:27:29;12.70;;;10.02;;
3841;SDS011;1936;47.074;15.336;2024-03-07T01:29:32;14.50;;;10.48;;
3841;SDS011;1936;47.074;15.336;2024-03-07T01:31:37;13.35;;;10.63;;
3841;SDS011;1936;47.074;15.336;2024-03-07T01:33:40;13.95;;;9.27;;
3841;SDS011;1936;47.074;15.336;2024-03-07T01:35:44;14.40;;;9.85;;
3841;SDS011;1936;47.074;15.336;2024-03-07T01:37:48;11.05;;;9.10;;
3841;SDS011;1936;47.074;15.336;2024-03-07T01:39:50;15.85;;;10.38;;
3841;SDS011;1936;47.074;15.336;2024-03-07T01:41:53;13.10;;;9.80;;
3841;SDS011;1936;47.074;15.336;2024-03-07T01:43:57;18.15;;;9.50;;
3841;SDS011;1936;47.074;15.336;2024-03-07T01:46:00;15.48;;;8.75;;
3841;SDS011;1936;47.074;15.336;2024-03-07T01:48:05;13.43;;;8.93;;
3841;SDS011;1936;47.074;15.336;2024-03-07T01:50:11;13.10;;;8.82;;
3841;SDS011;1936;47.074;15.336;2024-03-07T01:52:15;12.95;;;10.30;;
3841;SDS011;1936;47.074;15.336;2024-03-07T01:54:19;16.00;;;8.95;;
3841;SDS011;1936;47.074;15.336;2024-03-07T01:56:22;11.63;;;8.68;;
3841;SDS011;1936;47.074;15.336;2024-03-07T01:58:26;14.45;;;9.57;;
3841;SDS011;1936;47.074;15.336;2024-03-07T02:00:30;14.35;;;8.90;;
3841;SDS011;1936;47.074;15.336;2024-03-07T02:02:34;12.95;;;8.82;;
3841;SDS011;1936;47.074;15.336;2024-03-07T02:04:38;12.43;;;8.82;;
3841;SDS011;1936;47.074;15.336;2024-03-07T02:06:41;13.27;;;9.07;;
3841;SDS011;1936;47.074;15.336;2024-03-07T02:08:45;13.90;;;8.98;;
3841;SDS011;1936;47.074;15.336;2024-03-07T02:10:49;12.52;;;8.80;;
3841;SDS011;1936;47.074;15.336;2024-03-07T02:12:53;15.68;;;9.38;;
3841;SDS011;1936;47.074;15.336;2024-03-07T02:14:55;14.75;;;8.85;;
3841;SDS011;1936;47.074;15.336;2024-03-07T02:16:59;15.85;;;10.02;;
3841;SDS011;1936;47.074;15.336;2024-03-07T02:19:02;13.45;;;9.25;;
3841;SDS011;1936;47.074;15.336;2024-03-07T02:21:08;14.90;;;9.90;;
3841;SDS011;1936;47.074;15.336;2024-03-07T02:23:13;15.88;;;9.45;;
3841;SDS011;1936;47.074;15.336;2024-03-07T02:25:17;12.98;;;8.68;;
3841;SDS011;1936;47.074;15.336;2024-03-07T02:27:21;14.48;;;7.72;;
3841;SDS011;1936;47.074;15.336;2024-03-07T02:29:25;12.73;;;9.23;;
3841;SDS011;1936;47.074;15.336;2024-03-07T02:31:28;12.45;;;8.75;;
3841;SDS011;1936;47.074;15.336;2024-03-07T02:33:36;17.00;;;9.48;;
3841;SDS011;1936;47.074;15.336;2024-03-07T02:35:40;15.05;;;9.10;;
3841;SDS011;1936;47.074;15.336;2024-03-07T02:37:45;14.20;;;8.90;;
3841;SDS011;1936;47.074;15.336;2024-03-07T02:39:49;13.93;;;8.93;;
3841;SDS011;1936;47.074;15.336;2024-03-07T02:41:53;14.25;;;8.90;;
3841;SDS011;1936;47.074;15.336;2024-03-07T02:43:56;13.93;;;8.38;;
3841;SDS011;1936;47.074;15.336;2024-03-07T02:46:00;13.07;;;8.60;;
3841;SDS011;1936;47.074;15.336;2024-03-07T02:48:04;12.38;;;9.23;;
3841;SDS011;1936;47.074;15.336;2024-03-07T02:50:11;11.00;;;8.10;;
3841;SDS011;1936;47.074;15.336;2024-03-07T02:52:16;12.85;;;8.98;;
3841;SDS011;1936;47.074;15.336;2024-03-07T02:54:21;14.82;;;8.95;;
3841;SDS011;1936;47.074;15.336;2024-03-07T02:56:25;10.93;;;8.45;;
3841;SDS011;1936;47.074;15.336;2024-03-07T02:58:28;12.45;;;9.20;;
3841;SDS011;1936;47.074;15.336;2024-03-07T03:00:32;11.90;;;8.48;;
3841;SDS011;1936;47.074;15.336;2024-03-07T03:02:36;10.95;;;8.38;;
3841;SDS011;1936;47.074;15.336;2024-03-07T03:04:38;12.88;;;8.75;;
3841;SDS011;1936;47.074;15.336;2024-03-07T03:06:41;11.50;;;8.13;;
3841;SDS011;1936;47.074;15.336;2024-03-07T03:08:44;23.17;;;8.88;;
3841;SDS011;1936;47.074;15.336;2024-03-07T03:10:48;11.73;;;8.55;;
3841;SDS011;1936;47.074;15.336;2024-03-07T03:12:53;11.82;;;9.27;;
3841;SDS011;1936;47.074;15.336;2024-03-07T03:14:57;16.45;;;9.40;;
3841;SDS011;1936;47.074;15.336;2024-03-07T03:17:00;12.90;;;9.52;;
3841;SDS011;1936;47.074;15.336;2024-03-07T03:19:04;14.73;;;8.98;;
3841;SDS011;1936;47.074;15.336;2024-03-07T03:21:07;13.65;;;8.45;;
3841;SDS011;1936;47.074;15.336;2024-03-07T03:23:11;17.02;;;9.05;;
3841;SDS011;1936;47.074;15.336;2024-03-07T03:25:22;16.63;;;8.68;;
3841;SDS011;1936;47.074;15.336;2024-03-07T03:27:27;14.93;;;8.85;;
3841;SDS011;1936;47.074;15.336;2024-03-07T03:29:29;12.45;;;9.07;;
3841;SDS011;1936;47.074;15.336;2024-03-07T03:31:33;10.05;;;8.13;;
3841;SDS011;1936;47.074;15.336;2024-03-07T03:33:36;11.70;;;8.57;;
3841;SDS011;1936;47.074;15.336;2024-03-07T03:35:40;14.40;;;9.23;;
3841;SDS011;1936;47.074;15.336;2024-03-07T03:37:42;14.70;;;9.80;;
3841;SDS011;1936;47.074;15.336;2024-03-07T03:39:46;13.27;;;8.63;;
3841;SDS011;1936;47.074;15.336;2024-03-07T03:41:51;12.75;;;7.82;;
3841;SDS011;1936;47.074;15.336;2024-03-07T03:43:56;14.10;;;8.95;;
3841;SDS011;1936;47.074;15.336;2024-03-07T03:45:59;18.05;;;9.88;;
3841;SDS011;1936;47.074;15.336;2024-03-07T03:48:04;12.07;;;7.65;;
3841;SDS011;1936;47.074;15.336;2024-03-07T03:50:08;19.20;;;7.43;;
3841;SDS011;1936;47.074;15.336;2024-03-07T03:52:14;16.23;;;9.93;;
3841;SDS011;1936;47.074;15.336;2024-03-07T03:54:17;11.00;;;7.75;;
3841;SDS011;1936;47.074;15.336;2024-03-07T03:56:21;19.73;;;9.13;;
3841;SDS011;1936;47.074;15.336;2024-03-07T03:58:24;10.68;;;8.02;;
3841;SDS011;1936;47.074;15.336;2024-03-07T04:00:29;12.57;;;8.27;;
3841;SDS011;1936;47.074;15.336;2024-03-07T04:02:32;13.35;;;7.97;;
3841;SDS011;1936;47.074;15.336;2024-03-07T04:04:38;11.18;;;9.40;;
3841;SDS011;1936;47.074;15.336;2024-03-07T04:06:41;13.20;;;8.43;;
3841;SDS011;1936;47.074;15.336;2024-03-07T04:08:45;12.63;;;9.00;;
3841;SDS011;1936;47.074;15.336;2024-03-07T04:10:47;15.02;;;9.30;;
3841;SDS011;1936;47.074;15.336;2024-03-07T04:12:51;14.30;;;10.05;;
3841;SDS011;1936;47.074;15.336;2024-03-07T04:14:54;12.93;;;8.38;;
3841;SDS011;1936;47.074;15.336;2024-03-07T04:16:59;11.73;;;9.30;;
3841;SDS011;1936;47.074;15.336;2024-03-07T04:19:03;13.10;;;9.13;;
3841;SDS011;1936;47.074;15.336;2024-03-07T04:21:06;13.82;;;10.18;;
3841;SDS011;1936;47.074;15.336;2024-03-07T04:23:11;12.95;;;8.30;;
3841;SDS011;1936;47.074;15.336;2024-03-07T04:25:14;11.27;;;8.43;;
3841;SDS011;1936;47.074;15.336;2024-03-07T04:27:17;14.32;;;9.68;;
3841;SDS011;1936;47.074;15.336;2024-03-07T04:29:21;15.43;;;9.30;;
3841;SDS011;1936;47.074;15.336;2024-03-07T04:31:24;16.50;;;9.93;;
3841;SDS011;1936;47.074;15.336;2024-03-07T04:33:29;10.73;;;8.60;;
3841;SDS011;1936;47.074;15.336;2024-03-07T04:35:32;12.70;;;9.15;;
3841;SDS011;1936;47.074;15.336;2024-03-07T04:37:37;15.05;;;9.38;;
3841;SDS011;1936;47.074;15.336;2024-03-07T04:39:41;13.05;;;9.73;;
3841;SDS011;1936;47.074;15.336;2024-03-07T04:41:44;13.57;;;9.85;;
3841;SDS011;1936;47.074;15.336;2024-03-07T04:43:46;14.90;;;8.75;;
3841;SDS011;1936;47.074;15.336;2024-03-07T04:45:50;11.18;;;9.15;;
3841;SDS011;1936;47.074;15.336;2024-03-07T04:47:52;12.98;;;9.25;;
3841;SDS011;1936;47.074;15.336;2024-03-07T04:49:57;12.55;;;9.90;;
3841;SDS011;1936;47.074;15.336;2024-03-07T04:52:01;13.95;;;9.43;;
3841;SDS011;1936;47.074;15.336;2024-03-07T04:54:06;11.10;;;8.73;;
3841;SDS011;1936;47.074;15.336;2024-03-07T04:56:09;16.58;;;10.63;;
3841;SDS011;1936;47.074;15.336;2024-03-07T04:58:13;12.98;;;9.20;;
3841;SDS011;1936;47.074;15.336;2024-03-07T05:00:16;13.40;;;9.20;;
3841;SDS011;1936;47.074;15.336;2024-03-07T05:02:22;14.13;;;8.80;;
3841;SDS011;1936;47.074;15.336;2024-03-07T05:04:25;11.95;;;9.00;;
3841;SDS011;1936;47.074;15.336;2024-03-07T05:06:35;15.45;;;9.45;;
3841;SDS011;1936;47.074;15.336;2024-03-07T05:08:39;16.98;;;9.73;;
3841;SDS011;1936;47.074;15.336;2024-03-07T05:10:43;13.40;;;9.20;;
3841;SDS011;1936;47.074;15.336;2024-03-07T05:12:46;9.80;;;7.72;;
3841;SDS011;1936;47.074;15.336;2024-03-07T05:14:50;12.18;;;9.40;;
3841;SDS011;1936;47.074;15.336;2024-03-07T05:16:53;10.68;;;8.30;;
3841;SDS011;1936;47.074;15.336;2024-03-07T05:19:07;15.68;;;9.98;;
3841;SDS011;1936;47.074;15.336;2024-03-07T05:21:10;11.50;;;8.57;;
3841;SDS011;1936;47.074;15.336;2024-03-07T05:23:28;12.82;;;8.40;;
3841;SDS011;1936;47.074;15.336;2024-03-07T05:25:33;13.70;;;10.13;;
3841;SDS011;1936;47.074;15.336;2024-03-07T05:27:36;13.80;;;7.60;;
3841;SDS011;1936;47.074;15.336;2024-03-07T05:29:40;13.25;;;9.20;;
3841;SDS011;1936;47.074;15.336;2024-03-07T05:31:44;13.00;;;9.50;;
3841;SDS011;1936;47.074;15.336;2024-03-07T05:33:48;10.25;;;8.35;;
3841;SDS011;1936;47.074;15.336;2024-03-07T05:35:51;12.18;;;7.95;;
3841;SDS011;1936;47.074;15.336;2024-03-07T05:38:04;10.15;;;8.15;;
3841;SDS011;1936;47.074;15.336;2024-03-07T05:40:09;10.95;;;8.15;;
3841;SDS011;1936;47.074;15.336;2024-03-07T05:42:12;11.00;;;8.23;;
3841;SDS011;1936;47.074;15.336;2024-03-07T05:44:15;10.48;;;8.00;;
3841;SDS011;1936;47.074;15.336;2024-03-07T05:46:21;10.52;;;8.05;;
3841;SDS011;1936;47.074;15.336;2024-03-07T05:48:24;12.15;;;8.82;;
3841;SDS011;1936;47.074;15.336;2024-03-07T05:50:27;11.10;;;7.75;;
3841;SDS011;1936;47.074;15.336;2024-03-07T05:52:30;11.05;;;8.43;;
3841;SDS011;1936;47.074;15.336;2024-03-07T05:54:34;16.35;;;10.55;;
3841;SDS011;1936;47.074;15.336;2024-03-07T05:56:40;15.52;;;8.20;;
3841;SDS011;1936;47.074;15.336;2024-03-07T05:58:44;21.30;;;10.18;;
3841;SDS011;1936;47.074;15.336;2024-03-07T06:00:46;21.00;;;9.35;;
3841;SDS011;1936;47.074;15.336;2024-03-07T06:02:51;20.27;;;11.00;;
3841;SDS011;1936;47.074;15.336;2024-03-07T06:04:55;12.73;;;9.70;;
3841;SDS011;1936;47.074;15.336;2024-03-07T06:06:58;11.23;;;9.10;;
3841;SDS011;1936;47.074;15.336;2024-03-07T06:09:01;12.18;;;9.75;;
3841;SDS011;1936;47.074;15.336;2024-03-07T06:11:09;20.90;;;11.18;;
3841;SDS011;1936;47.074;15.336;2024-03-07T06:13:14;15.73;;;10.50;;
3841;SDS011;1936;47.074;15.336;2024-03-07T06:15:19;15.90;;;9.68;;
3841;SDS011;1936;47.074;15.336;2024-03-07T06:17:23;14.85;;;9.77;;
3841;SDS011;1936;47.074;15.336;2024-03-07T06:19:26;18.35;;;9.35;;
3841;SDS011;1936;47.074;15.336;2024-03-07T06:21:30;19.15;;;11.18;;
3841;SDS011;1936;47.074;15.336;2024-03-07T06:23:33;13.43;;;9.30;;
3841;SDS011;1936;47.074;15.336;2024-03-07T06:25:37;17.00;;;9.25;;
3841;SDS011;1936;47.074;15.336;2024-03-07T06:27:48;13.75;;;9.80;;
3841;SDS011;1936;47.074;15.336;2024-03-07T06:29:58;14.48;;;9.85;;
3841;SDS011;1936;47.074;15.336;2024-03-07T06:32:01;16.27;;;10.48;;
3841;SDS011;1936;47.074;15.336;2024-03-07T06:34:05;11.23;;;8.98;;
3841;SDS011;1936;47.074;15.336;2024-03-07T06:36:09;15.45;;;11.00;;
3841;SDS011;1936;47.074;15.336;2024-03-07T06:38:13;14.23;;;9.23;;
3841;SDS011;1936;47.074;15.336;2024-03-07T06:40:17;13.15;;;9.52;;
3841;SDS011;1936;47.074;15.336;2024-03-07T06:42:24;13.35;;;8.18;;
3841;SDS011;1936;47.074;15.336;2024-03-07T06:44:27;20.02;;;9.63;;
3841;SDS011;1936;47.074;15.336;2024-03-07T06:46:32;9.50;;;8.57;;
3841;SDS011;1936;47.074;15.336;2024-03-07T06:48:35;9.07;;;7.65;;
3841;SDS011;1936;47.074;15.336;2024-03-07T06:50:39;11.75;;;9.77;;
3841;SDS011;1936;47.074;15.336;2024-03-07T06:52:42;12.15;;;8.10;;
3841;SDS011;1936;47.074;15.336;2024-03-07T06:54:49;8.75;;;7.30;;
3841;SDS011;1936;47.074;15.336;2024-03-07T06:56:53;10.48;;;6.55;;
3841;SDS011;1936;47.074;15.336;2024-03-07T06:58:56;9.00;;;6.88;;
3841;SDS011;1936;47.074;15.336;2024-03-07T07:01:00;9.67;;;7.60;;
3841;SDS011;1936;47.074;15.336;2024-03-07T07:03:10;11.43;;;6.80;;
3841;SDS011;1936;47.074;15.336;2024-03-07T07:05:14;9.00;;;6.93;;
3841;SDS011;1936;47.074;15.336;2024-03-07T07:07:17;9.83;;;6.50;;
3841;SDS011;1936;47.074;15.336;2024-03-07T07:09:20;7.37;;;6.20;;
3841;SDS011;1936;47.074;15.336;2024-03-07T07:11:24;7.33;;;5.33;;
3841;SDS011;1936;47.074;15.336;2024-03-07T07:13:33;7.27;;;4.23;;
3841;SDS011;1936;47.074;15.336;2024-03-07T07:15:38;5.87;;;4.57;;
3841;SDS011;1936;47.074;15.336;2024-03-07T07:17:43;5.07;;;4.03;;
3841;SDS011;1936;47.074;15.336;2024-03-07T07:19:49;6.93;;;3.70;;
3841;SDS011;1936;47.074;15.336;2024-03-07T07:21:54;4.63;;;3.87;;
3841;SDS011;1936;47.074;15.336;2024-03-07T07:23:57;3.37;;;3.07;;
3841;SDS011;1936;47.074;15.336;2024-03-07T07:26:00;5.30;;;3.60;;
3841;SDS011;1936;47.074;15.336;2024-03-07T07:28:04;4.70;;;3.03;;
3841;SDS011;1936;47.074;15.336;2024-03-07T07:30:10;4.07;;;3.20;;
3841;SDS011;1936;47.074;15.336;2024-03-07T07:32:13;2.90;;;2.60;;
3841;SDS011;1936;47.074;15.336;2024-03-07T07:34:16;4.70;;;2.70;;
3841;SDS011;1936;47.074;15.336;2024-03-07T07:36:21;2.87;;;2.60;;
3841;SDS011;1936;47.074;15.336;2024-03-07T07:38:27;4.17;;;3.40;;
3841;SDS011;1936;47.074;15.336;2024-03-07T07:40:31;3.07;;;2.70;;
3841;SDS011;1936;47.074;15.336;2024-03-07T07:42:35;2.90;;;1.73;;
3841;SDS011;1936;47.074;15.336;2024-03-07T07:44:40;2.60;;;2.00;;
3841;SDS011;1936;47.074;15.336;2024-03-07T07:46:45;5.10;;;2.43;;
3841;SDS011;1936;47.074;15.336;2024-03-07T07:48:48;7.70;;;2.30;;
3841;SDS011;1936;47.074;15.336;2024-03-07T07:50:51;3.00;;;2.33;;
3841;SDS011;1936;47.074;15.336;2024-03-07T07:52:57;4.40;;;2.40;;
3841;SDS011;1936;47.074;15.336;2024-03-07T07:55:01;2.70;;;2.50;;
3841;SDS011;1936;47.074;15.336;2024-03-07T07:57:04;2.70;;;2.10;;
3841;SDS011;1936;47.074;15.336;2024-03-07T07:59:07;2.30;;;1.70;;
3841;SDS011;1936;47.074;15.336;2024-03-07T08:01:10;3.03;;;2.00;;
3841;SDS011;1936;47.074;15.336;2024-03-07T08:03:16;2.43;;;2.23;;
3841;SDS011;1936;47.074;15.336;2024-03-07T08:05:22;3.30;;;3.00;;
3841;SDS011;1936;47.074;15.336;2024-03-07T08:07:27;3.73;;;2.67;;
3841;SDS011;1936;47.074;15.336;2024-03-07T08:09:30;3.30;;;1.90;;
3841;SDS011;1936;47.074;15.336;2024-03-07T08:11:33;2.47;;;2.27;;
3841;SDS011;1936;47.074;15.336;2024-03-07T08:13:38;5.47;;;2.13;;
3841;SDS011;1936;47.074;15.336;2024-03-07T08:15:42;2.70;;;2.27;;
3841;SDS011;1936;47.074;15.336;2024-03-07T08:17:48;2.53;;;1.70;;
3841;SDS011;1936;47.074;15.336;2024-03-07T08:19:51;2.40;;;2.10;;
3841;SDS011;1936;47.074;15.336;2024-03-07T08:21:55;2.47;;;2.07;;
3841;SDS011;1936;47.074;15.336;2024-03-07T08:23:58;2.63;;;1.93;;
3841;SDS011;1936;47.074;15.336;2024-03-07T08:26:06;2.03;;;1.80;;
3841;SDS011;1936;47.074;15.336;2024-03-07T08:28:09;2.10;;;1.90;;
3841;SDS011;1936;47.074;15.336;2024-03-07T08:30:13;2.50;;;1.93;;
3841;SDS011;1936;47.074;15.336;2024-03-07T08:32:16;2.23;;;2.03;;
3841;SDS011;1936;47.074;15.336;2024-03-07T08:34:20;2.53;;;2.33;;
3841;SDS011;1936;47.074;15.336;2024-03-07T08:36:23;2.63;;;2.00;;
3841;SDS011;1936;47.074;15.336;2024-03-07T08:38:28;1.70;;;1.43;;
3841;SDS011;1936;47.074;15.336;2024-03-07T08:40:33;2.40;;;1.90;;
3841;SDS011;1936;47.074;15.336;2024-03-07T08:42:38;2.23;;;1.97;;
3841;SDS011;1936;47.074;15.336;2024-03-07T08:44:43;1.90;;;1.80;;
3841;SDS011;1936;47.074;15.336;2024-03-07T08:46:47;3.00;;;1.83;;
3841;SDS011;1936;47.074;15.336;2024-03-07T08:48:50;3.07;;;2.27;;
3841;SDS011;1936;47.074;15.336;2024-03-07T08:50:54;1.60;;;1.50;;
3841;SDS011;1936;47.074;15.336;2024-03-07T08:52:57;2.00;;;1.63;;
3841;SDS011;1936;47.074;15.336;2024-03-07T08:55:00;2.23;;;2.00;;
3841;SDS011;1936;47.074;15.336;2024-03-07T08:57:03;2.33;;;1.90;;
3841;SDS011;1936;47.074;15.336;2024-03-07T08:59:10;5.60;;;3.83;;
3841;SDS011;1936;47.074;15.336;2024-03-07T09:01:17;4.63;;;2.20;;
3841;SDS011;1936;47.074;15.336;2024-03-07T09:03:21;3.27;;;2.40;;
3841;SDS011;1936;47.074;15.336;2024-03-07T09:05:26;1.80;;;1.33;;
3841;SDS011;1936;47.074;15.336;2024-03-07T09:07:29;2.50;;;2.13;;
3841;SDS011;1936;47.074;15.336;2024-03-07T09:09:33;3.47;;;1.73;;
3841;SDS011;1936;47.074;15.336;2024-03-07T09:11:37;2.27;;;2.07;;
3841;SDS011;1936;47.074;15.336;2024-03-07T09:13:40;2.17;;;2.00;;
3841;SDS011;1936;47.074;15.336;2024-03-07T09:15:45;1.90;;;1.77;;
3841;SDS011;1936;47.074;15.336;2024-03-07T09:17:48;2.10;;;1.90;;
3841;SDS011;1936;47.074;15.336;2024-03-07T09:19:51;2.07;;;1.80;;
3841;SDS011;1936;47.074;15.336;2024-03-07T09:21:54;2.30;;;1.93;;
3841;SDS011;1936;47.074;15.336;2024-03-07T09:23:58;2.87;;;2.10;;
3841;SDS011;1936;47.074;15.336;2024-03-07T09:26:01;2.10;;;1.40;;
3841;SDS011;1936;47.074;15.336;2024-03-07T09:28:07;2.27;;;1.97;;
3841;SDS011;1936;47.074;15.336;2024-03-07T09:30:12;2.23;;;1.93;;
3841;SDS011;1936;47.074;15.336;2024-03-07T09:32:21;2.70;;;1.97;;
3841;SDS011;1936;47.074;15.336;2024-03-07T09:34:25;2.10;;;1.93;;
3841;SDS011;1936;47.074;15.336;2024-03-07T09:36:29;1.57;;;1.47;;
3841;SDS011;1936;47.074;15.336;2024-03-07T09:38:32;2.80;;;1.87;;
3841;SDS011;1936;47.074;15.336;2024-03-07T09:40:37;2.03;;;1.83;;
3841;SDS011;1936;47.074;15.336;2024-03-07T09:42:42;1.93;;;1.67;;
3841;SDS011;1936;47.074;15.336;2024-03-07T09:44:47;2.07;;;1.90;;
3841;SDS011;1936;47.074;15.336;2024-03-07T09:46:54;2.07;;;1.93;;
3841;SDS011;1936;47.074;15.336;2024-03-07T09:49:01;2.20;;;1.60;;
3841;SDS011;1936;47.074;15.336;2024-03-07T09:51:07;3.73;;;2.10;;
3841;SDS011;1936;47.074;15.336;2024-03-07T09:53:11;2.20;;;2.00;;
3841;SDS011;1936;47.074;15.336;2024-03-07T09:55:16;3.23;;;2.30;;
3841;SDS011;1936;47.074;15.336;2024-03-07T09:57:21;3.27;;;2.50;;
3841;SDS011;1936;47.074;15.336;2024-03-07T09:59:26;1.80;;;1.70;;
3841;SDS011;1936;47.074;15.336;2024-03-07T10:01:34;2.30;;;1.73;;
3841;SDS011;1936;47.074;15.336;2024-03-07T10:03:40;2.50;;;2.23;;
3841;SDS011;1936;47.074;15.336;2024-03-07T10:05:48;2.00;;;1.80;;
3841;SDS011;1936;47.074;15.336;2024-03-07T10:07:53;5.20;;;2.13;;
3841;SDS011;1936;47.074;15.336;2024-03-07T10:09:57;4.03;;;2.10;;
3841;SDS011;1936;47.074;15.336;2024-03-07T10:12:01;2.07;;;1.87;;
3841;SDS011;1936;47.074;15.336;2024-03-07T10:14:04;4.23;;;2.50;;
3841;SDS011;1936;47.074;15.336;2024-03-07T10:16:08;3.23;;;2.93;;
3841;SDS011;1936;47.074;15.336;2024-03-07T10:18:13;5.60;;;4.60;;
3841;SDS011;1936;47.074;15.336;2024-03-07T10:20:17;10.13;;;5.30;;
3841;SDS011;1936;47.074;15.336;2024-03-07T10:22:26;7.97;;;5.63;;
3841;SDS011;1936;47.074;15.336;2024-03-07T10:24:29;7.60;;;5.47;;
3841;SDS011;1936;47.074;15.336;2024-03-07T10:26:34;6.27;;;4.93;;
3841;SDS011;1936;47.074;15.336;2024-03-07T10:28:39;7.87;;;5.77;;
3841;SDS011;1936;47.074;15.336;2024-03-07T10:30:43;6.00;;;5.07;;
3841;SDS011;1936;47.074;15.336;2024-03-07T10:32:47;9.27;;;4.73;;
3841;SDS011;1936;47.074;15.336;2024-03-07T10:34:53;6.50;;;4.83;;
3841;SDS011;1936;47.074;15.336;2024-03-07T10:36:56;6.37;;;4.63;;
3841;SDS011;1936;47.074;15.336;2024-03-07T10:39:01;6.50;;;5.10;;
3841;SDS011;1936;47.074;15.336;2024-03-07T10:41:13;8.83;;;5.40;;
3841;SDS011;1936;47.074;15.336;2024-03-07T10:43:17;7.63;;;4.73;;
3841;SDS011;1936;47.074;15.336;2024-03-07T10:45:22;5.03;;;4.53;;
3841;SDS011;1936;47.074;15.336;2024-03-07T10:47:27;9.40;;;5.20;;
3841;SDS011;1936;47.074;15.336;2024-03-07T10:49:33;6.17;;;4.33;;
3841;SDS011;1936;47.074;15.336;2024-03-07T10:51:40;5.53;;;4.37;;
3841;SDS011;1936;47.074;15.336;2024-03-07T10:53:52;7.30;;;4.73;;
3841;SDS011;1936;47.074;15.336;2024-03-07T10:56:08;6.27;;;3.93;;
3841;SDS011;1936;47.074;15.336;2024-03-07T10:58:24;4.83;;;4.33;;
3841;SDS011;1936;47.074;15.336;2024-03-07T11:00:35;4.43;;;3.60;;
3841;SDS011;1936;47.074;15.336;2024-03-07T11:02:47;4.20;;;3.47;;
3841;SDS011;1936;47.074;15.336;2024-03-07T11:04:56;5.63;;;4.47;;
3841;SDS011;1936;47.074;15.336;2024-03-07T11:07:01;6.57;;;4.57;;
3841;SDS011;1936;47.074;15.336;2024-03-07T11:09:05;3.87;;;3.40;;
3841;SDS011;1936;47.074;15.336;2024-03-07T11:11:14;3.80;;;3.47;;
3841;SDS011;1936;47.074;15.336;2024-03-07T11:13:17;4.63;;;3.40;;
3841;SDS011;1936;47.074;15.336;2024-03-07T11:15:21;2.90;;;2.53;;
3841;SDS011;1936;47.074;15.336;2024-03-07T11:17:27;3.43;;;2.87;;
3841;SDS011;1936;47.074;15.336;2024-03-07T11:19:32;3.47;;;2.90;;
3841;SDS011;1936;47.074;15.336;2024-03-07T11:21:41;3.27;;;2.37;;
3841;SDS011;1936;47.074;15.336;2024-03-07T11:23:45;2.77;;;2.50;;
3841;SDS011;1936;47.074;15.336;2024-03-07T11:25:48;3.90;;;3.50;;
3841;SDS011;1936;47.074;15.336;2024-03-07T11:27:52;3.70;;;3.27;;
3841;SDS011;1936;47.074;15.336;2024-03-07T11:29:59;7.17;;;4.60;;
3841;SDS011;1936;47.074;15.336;2024-03-07T11:32:08;6.03;;;4.10;;
3841;SDS011;1936;47.074;15.336;2024-03-07T11:34:12;7.63;;;4.30;;
3841;SDS011;1936;47.074;15.336;2024-03-07T11:36:41;7.23;;;4.30;;
3841;SDS011;1936;47.074;15.336;2024-03-07T11:38:48;4.73;;;4.23;;
3841;SDS011;1936;47.074;15.336;2024-03-07T11:40:51;5.30;;;4.80;;
3841;SDS011;1936;47.074;15.336;2024-03-07T11:42:58;5.80;;;4.33;;
3841;SDS011;1936;47.074;15.336;2024-03-07T11:45:06;7.37;;;4.33;;
3841;SDS011;1936;47.074;15.336;2024-03-07T11:47:10;6.60;;;4.23;;
3841;SDS011;1936;47.074;15.336;2024-03-07T11:49:14;5.87;;;3.87;;
3841;SDS011;1936;47.074;15.336;2024-03-07T11:51:18;5.50;;;3.80;;
3841;SDS011;1936;47.074;15.336;2024-03-07T11:53:28;5.07;;;4.10;;
3841;SDS011;1936;47.074;15.336;2024-03-07T11:55:34;4.07;;;3.70;;
3841;SDS011;1936;47.074;15.336;2024-03-07T11:57:43;4.27;;;3.00;;
3841;SDS011;1936;47.074;15.336;2024-03-07T11:59:49;3.87;;;3.20;;
3841;SDS011;1936;47.074;15.336;2024-03-07T12:01:54;4.37;;;3.70;;
3841;SDS011;1936;47.074;15.336;2024-03-07T12:03:59;4.70;;;3.63;;
3841;SDS011;1936;47.074;15.336;2024-03-07T12:06:07;4.83;;;3.57;;
3841;SDS011;1936;47.074;15.336;2024-03-07T12:08:14;5.40;;;4.27;;
3841;SDS011;1936;47.074;15.336;2024-03-07T12:10:19;4.03;;;3.60;;
3841;SDS011;1936;47.074;15.336;2024-03-07T12:12:27;3.63;;;3.33;;
3841;SDS011;1936;47.074;15.336;2024-03-07T12:14:30;6.30;;;3.37;;
3841;SDS011;1936;47.074;15.336;2024-03-07T12:16:35;4.60;;;3.47;;
3841;SDS011;1936;47.074;15.336;2024-03-07T12:18:38;5.03;;;4.53;;
3841;SDS011;1936;47.074;15.336;2024-03-07T12:20:44;4.80;;;4.30;;
3841;SDS011;1936;47.074;15.336;2024-03-07T12:22:51;4.83;;;4.33;;
3841;SDS011;1936;47.074;15.336;2024-03-07T12:25:02;4.97;;;4.07;;
3841;SDS011;1936;47.074;15.336;2024-03-07T12:27:12;6.30;;;4.20;;
3841;SDS011;1936;47.074;15.336;2024-03-07T12:29:17;10.40;;;4.37;;
3841;SDS011;1936;47.074;15.336;2024-03-07T12:31:21;4.63;;;4.23;;
3841;SDS011;1936;47.074;15.336;2024-03-07T12:33:26;5.33;;;3.60;;
3841;SDS011;1936;47.074;15.336;2024-03-07T12:35:28;3.77;;;3.40;;